KCFV

Coffeyville Municipal Airport

Coffeyville, Kansas, USA
METAR KCFV 190452Z AUTO 18004KT 10SM CLR 24/21 A2989 RMK AO2 SLP113 T02390206
Observed Flight Rules
Sep-19 @ 04:52 UTC (22 minutes ago) Visual Flight Rules
Wind Visibility Clouds
180° at 4 knots 10 miles
  • Clear skies
Temperatures Readings
Current 24°C / 75°F
Dewpoint 21°C / 70°F
Humidity 83%
Altimeter 29.89" Hg
Pressure 1011.3 hPa
Elevation 225
METAR KCFV 190452Z AUTO 18004KT 10SM CLR 24/21 A2989 RMK AO2 SLP113 T02390206
Observed Flight Rules
Sep-19 @ 04:52 UTC
(22 minutes ago)
VFR
Wind Visibility
180° at 4 knots 10 miles
Clouds
  • Clear skies
Temperature Dewpoint
24°C / 75°F 21°C / 70°F
Humidity Altimeter Pressure
83% 29.89" Hg 1011.3 hPa